Monday, June 18, 2018, 8:47 PM EDT
Back to Local

KNEL, Lakehurst Naval Air Station

Location: Lakehurst, NJ, United States Lat: 40.033
Local Time: 8:47 PM EDT ( 0:47 GMT) Lon: -74.317
Time Zone: US/Eastern Elev: 101 ft

Show me the last for .
Show Decoded

2018-06-18 19:55 METAR KNEL 182355Z 19005KT 7SM CLR 28/20 A2977 RMK AO2A SLPNO WND DATA ESTMD
                 ALSTG ESTMD T02800200 $ =
2018-06-18 18:55 METAR KNEL 182255Z 22007KT 7SM CLR 31/21 A2977 RMK AO2A SLPNO WND DATA ESTMD
                 ALSTG ESTMD T03090207 $ =
2018-06-18 17:55 METAR KNEL 182155Z 24005KT 7SM CLR 32/22 A2979 RMK AO2A SLPNO WND DATA ESTMD
                 ALSTG ESTMD T03150215 $ =
2018-06-18 16:55 METAR KNEL 182055Z 23005KT 7SM CLR 32/21 A2981 RMK AO2A SLPNO WND DATA ESTMD
                 ALSTG ESTMD T03220211 $ =
2018-06-18 15:55 METAR KNEL 181955Z 18005KT 7SM CLR 34/21 A2984 RMK AO2A SLPNO WND DATA ESTMD
                 ALSTG ESTMD T03380211 $ =

Support USWX by starting your Amazon purchase here.